sensor_id;sensor_type;location;lat;lon;timestamp;pressure;altitude;pressure_sealevel;temperature;humidity
83815;BME280;73829;53.826;-3.034;2024-02-04T00:01:07;102165.06;;;17.60;53.20
83815;BME280;73829;53.826;-3.034;2024-02-04T00:03:58;102158.21;;;17.59;53.22
83815;BME280;73829;53.826;-3.034;2024-02-04T00:06:29;102166.86;;;17.58;53.18
83815;BME280;73829;53.826;-3.034;2024-02-04T00:09:00;102175.12;;;17.58;53.17
83815;BME280;73829;53.826;-3.034;2024-02-04T00:11:33;102180.42;;;17.56;53.10
83815;BME280;73829;53.826;-3.034;2024-02-04T00:14:04;102178.88;;;17.55;53.26
83815;BME280;73829;53.826;-3.034;2024-02-04T00:16:35;102176.05;;;17.56;53.30
83815;BME280;73829;53.826;-3.034;2024-02-04T00:19:06;102168.32;;;17.55;53.20
83815;BME280;73829;53.826;-3.034;2024-02-04T00:21:38;102161.29;;;17.55;53.28
83815;BME280;73829;53.826;-3.034;2024-02-04T00:24:09;102174.84;;;17.54;53.21
83815;BME280;73829;53.826;-3.034;2024-02-04T00:26:40;102183.64;;;17.54;53.27
83815;BME280;73829;53.826;-3.034;2024-02-04T00:29:11;102182.09;;;17.53;53.20
83815;BME280;73829;53.826;-3.034;2024-02-04T00:31:42;102171.71;;;17.53;53.24
83815;BME280;73829;53.826;-3.034;2024-02-04T00:34:13;102174.73;;;17.52;53.11
83815;BME280;73829;53.826;-3.034;2024-02-04T00:36:44;102175.23;;;17.52;53.12
83815;BME280;73829;53.826;-3.034;2024-02-04T00:39:15;102178.24;;;17.52;53.28
83815;BME280;73829;53.826;-3.034;2024-02-04T00:41:47;102185.11;;;17.51;53.28
83815;BME280;73829;53.826;-3.034;2024-02-04T00:44:18;102189.69;;;17.51;53.16
83815;BME280;73829;53.826;-3.034;2024-02-04T00:46:49;102192.87;;;17.50;53.17
83815;BME280;73829;53.826;-3.034;2024-02-04T00:49:20;102190.60;;;17.50;53.18
83815;BME280;73829;53.826;-3.034;2024-02-04T00:51:51;102171.96;;;17.49;53.23
83815;BME280;73829;53.826;-3.034;2024-02-04T00:54:22;102167.05;;;17.49;53.06
83815;BME280;73829;53.826;-3.034;2024-02-04T00:56:53;102169.69;;;17.49;53.26
83815;BME280;73829;53.826;-3.034;2024-02-04T00:59:25;102169.88;;;17.48;53.17
83815;BME280;73829;53.826;-3.034;2024-02-04T01:01:56;102178.13;;;17.48;53.22
83815;BME280;73829;53.826;-3.034;2024-02-04T01:04:28;102176.58;;;17.47;53.08
83815;BME280;73829;53.826;-3.034;2024-02-04T01:06:59;102167.59;;;17.47;53.01
83815;BME280;73829;53.826;-3.034;2024-02-04T01:09:30;102164.98;;;17.46;53.21
83815;BME280;73829;53.826;-3.034;2024-02-04T01:12:01;102155.86;;;17.45;53.21
83815;BME280;73829;53.826;-3.034;2024-02-04T01:14:32;102150.75;;;17.45;53.10
83815;BME280;73829;53.826;-3.034;2024-02-04T01:17:04;102148.80;;;17.45;53.04
83815;BME280;73829;53.826;-3.034;2024-02-04T01:19:35;102155.34;;;17.44;53.19
83815;BME280;73829;53.826;-3.034;2024-02-04T01:22:06;102151.12;;;17.44;52.99
83815;BME280;73829;53.826;-3.034;2024-02-04T01:24:37;102159.40;;;17.43;53.11
83815;BME280;73829;53.826;-3.034;2024-02-04T01:27:08;102155.02;;;17.43;53.10
83815;BME280;73829;53.826;-3.034;2024-02-04T01:29:39;102152.21;;;17.42;53.04
83815;BME280;73829;53.826;-3.034;2024-02-04T01:32:10;102149.93;;;17.42;53.05
83815;BME280;73829;53.826;-3.034;2024-02-04T01:34:42;102146.41;;;17.42;52.92
83815;BME280;73829;53.826;-3.034;2024-02-04T01:37:13;102148.02;;;17.41;53.05
83815;BME280;73829;53.826;-3.034;2024-02-04T01:39:44;102138.52;;;17.40;53.06
83815;BME280;73829;53.826;-3.034;2024-02-04T01:42:15;102144.34;;;17.40;52.94
83815;BME280;73829;53.826;-3.034;2024-02-04T01:44:46;102143.66;;;17.39;52.83
83815;BME280;73829;53.826;-3.034;2024-02-04T01:47:17;102143.14;;;17.38;52.85
83815;BME280;73829;53.826;-3.034;2024-02-04T01:49:48;102146.48;;;17.38;52.79
83815;BME280;73829;53.826;-3.034;2024-02-04T01:52:19;102145.09;;;17.37;52.81
83815;BME280;73829;53.826;-3.034;2024-02-04T01:54:52;102145.62;;;17.37;52.78
83815;BME280;73829;53.826;-3.034;2024-02-04T01:57:24;102141.77;;;17.36;52.70
83815;BME280;73829;53.826;-3.034;2024-02-04T01:59:56;102139.86;;;17.35;52.90
83815;BME280;73829;53.826;-3.034;2024-02-04T02:02:28;102131.29;;;17.33;52.82
83815;BME280;73829;53.826;-3.034;2024-02-04T02:05:00;102131.30;;;17.32;52.80
83815;BME280;73829;53.826;-3.034;2024-02-04T02:07:32;102131.67;;;17.31;52.88
83815;BME280;73829;53.826;-3.034;2024-02-04T02:10:04;102118.17;;;17.29;52.83
83815;BME280;73829;53.826;-3.034;2024-02-04T02:12:39;102119.58;;;17.28;52.89
83815;BME280;73829;53.826;-3.034;2024-02-04T02:15:13;102126.45;;;17.28;52.93
83815;BME280;73829;53.826;-3.034;2024-02-04T02:17:50;102106.41;;;17.27;52.86
83815;BME280;73829;53.826;-3.034;2024-02-04T02:20:21;102111.89;;;17.26;52.89
83815;BME280;73829;53.826;-3.034;2024-02-04T02:23:02;102092.70;;;17.26;52.93
83815;BME280;73829;53.826;-3.034;2024-02-04T02:25:35;102099.95;;;17.25;52.70
83815;BME280;73829;53.826;-3.034;2024-02-04T02:28:08;102091.86;;;17.25;52.87
83815;BME280;73829;53.826;-3.034;2024-02-04T02:30:39;102094.35;;;17.24;52.90
83815;BME280;73829;53.826;-3.034;2024-02-04T02:33:10;102088.23;;;17.22;52.93
83815;BME280;73829;53.826;-3.034;2024-02-04T02:35:42;102086.64;;;17.22;52.98
83815;BME280;73829;53.826;-3.034;2024-02-04T02:38:23;102086.13;;;17.21;52.92
83815;BME280;73829;53.826;-3.034;2024-02-04T02:41:02;102088.77;;;17.21;53.00
83815;BME280;73829;53.826;-3.034;2024-02-04T02:43:35;102092.48;;;17.20;52.64
83815;BME280;73829;53.826;-3.034;2024-02-04T02:46:10;102085.98;;;17.20;52.85
83815;BME280;73829;53.826;-3.034;2024-02-04T02:48:42;102079.48;;;17.19;52.96
83815;BME280;73829;53.826;-3.034;2024-02-04T02:51:14;102080.20;;;17.19;52.92
83815;BME280;73829;53.826;-3.034;2024-02-04T02:53:45;102077.05;;;17.18;52.95
83815;BME280;73829;53.826;-3.034;2024-02-04T02:56:16;102082.17;;;17.17;52.75
83815;BME280;73829;53.826;-3.034;2024-02-04T02:58:47;102067.40;;;17.17;52.89
83815;BME280;73829;53.826;-3.034;2024-02-04T03:01:18;102067.95;;;17.16;52.68
83815;BME280;73829;53.826;-3.034;2024-02-04T03:03:50;102067.61;;;17.16;52.82
83815;BME280;73829;53.826;-3.034;2024-02-04T03:06:21;102067.42;;;17.16;52.95
83815;BME280;73829;53.826;-3.034;2024-02-04T03:08:52;102057.43;;;17.13;52.79
83815;BME280;73829;53.826;-3.034;2024-02-04T03:11:23;102063.73;;;17.15;52.82
83815;BME280;73829;53.826;-3.034;2024-02-04T03:13:54;102058.48;;;17.14;52.80
83815;BME280;73829;53.826;-3.034;2024-02-04T03:16:25;102056.71;;;17.14;52.74
83815;BME280;73829;53.826;-3.034;2024-02-04T03:18:56;102050.95;;;17.12;52.83
83815;BME280;73829;53.826;-3.034;2024-02-04T03:21:27;102050.92;;;17.14;52.72
83815;BME280;73829;53.826;-3.034;2024-02-04T03:23:58;102049.20;;;17.12;52.83
83815;BME280;73829;53.826;-3.034;2024-02-04T03:26:30;102042.88;;;17.12;52.66
83815;BME280;73829;53.826;-3.034;2024-02-04T03:29:01;102045.69;;;17.11;52.83
83815;BME280;73829;53.826;-3.034;2024-02-04T03:31:34;102040.81;;;17.10;52.62
83815;BME280;73829;53.826;-3.034;2024-02-04T03:34:05;102045.54;;;17.10;52.75
83815;BME280;73829;53.826;-3.034;2024-02-04T03:36:38;102041.86;;;17.10;52.67
83815;BME280;73829;53.826;-3.034;2024-02-04T03:39:09;102046.63;;;17.09;52.74
83815;BME280;73829;53.826;-3.034;2024-02-04T03:41:40;102036.25;;;17.09;52.83
83815;BME280;73829;53.826;-3.034;2024-02-04T03:44:12;102026.61;;;17.07;52.66
83815;BME280;73829;53.826;-3.034;2024-02-04T03:46:43;102027.13;;;17.07;52.75
83815;BME280;73829;53.826;-3.034;2024-02-04T03:49:14;102017.81;;;17.07;52.76
83815;BME280;73829;53.826;-3.034;2024-02-04T03:51:45;102008.16;;;17.07;52.62
83815;BME280;73829;53.826;-3.034;2024-02-04T03:54:18;102000.08;;;17.06;52.77
83815;BME280;73829;53.826;-3.034;2024-02-04T03:56:50;101992.17;;;17.06;52.64
83815;BME280;73829;53.826;-3.034;2024-02-04T03:59:21;101987.27;;;17.06;52.77
83815;BME280;73829;53.826;-3.034;2024-02-04T04:01:52;101978.11;;;17.05;52.68
83815;BME280;73829;53.826;-3.034;2024-02-04T04:04:24;101975.84;;;17.05;52.71
83815;BME280;73829;53.826;-3.034;2024-02-04T04:06:56;101980.06;;;17.05;52.72
83815;BME280;73829;53.826;-3.034;2024-02-04T04:09:27;101970.21;;;17.05;52.72
83815;BME280;73829;53.826;-3.034;2024-02-04T04:11:58;101964.59;;;17.05;52.46
83815;BME280;73829;53.826;-3.034;2024-02-04T04:14:29;101973.21;;;17.05;52.72
83815;BME280;73829;53.826;-3.034;2024-02-04T04:17:00;101965.82;;;17.05;52.48
83815;BME280;73829;53.826;-3.034;2024-02-04T04:19:31;101958.79;;;17.05;52.64
83815;BME280;73829;53.826;-3.034;2024-02-04T04:22:05;101946.31;;;17.04;52.51
83815;BME280;73829;53.826;-3.034;2024-02-04T04:24:37;101941.05;;;17.04;52.73
83815;BME280;73829;53.826;-3.034;2024-02-04T04:27:08;101933.52;;;17.02;52.58
83815;BME280;73829;53.826;-3.034;2024-02-04T04:29:40;101926.14;;;17.02;52.58
83815;BME280;73829;53.826;-3.034;2024-02-04T04:32:11;101931.45;;;17.01;52.60
83815;BME280;73829;53.826;-3.034;2024-02-04T04:34:42;101925.83;;;17.01;52.76
83815;BME280;73829;53.826;-3.034;2024-02-04T04:37:13;101934.61;;;17.01;52.40
83815;BME280;73829;53.826;-3.034;2024-02-04T04:39:44;101942.89;;;17.01;52.61
83815;BME280;73829;53.826;-3.034;2024-02-04T04:42:15;101945.35;;;17.00;52.57
83815;BME280;73829;53.826;-3.034;2024-02-04T04:44:46;101946.77;;;17.00;52.38
83815;BME280;73829;53.826;-3.034;2024-02-04T04:47:17;101953.46;;;16.99;52.55
83815;BME280;73829;53.826;-3.034;2024-02-04T04:49:49;101943.42;;;17.00;52.52
83815;BME280;73829;53.826;-3.034;2024-02-04T04:52:20;101951.71;;;16.99;52.54
83815;BME280;73829;53.826;-3.034;2024-02-04T04:54:51;101956.64;;;16.99;52.52
83815;BME280;73829;53.826;-3.034;2024-02-04T04:57:22;101960.33;;;16.99;52.56
83815;BME280;73829;53.826;-3.034;2024-02-04T04:59:53;101955.25;;;16.98;52.58
83815;BME280;73829;53.826;-3.034;2024-02-04T05:02:24;101951.20;;;16.98;52.43
83815;BME280;73829;53.826;-3.034;2024-02-04T05:04:55;101944.52;;;16.98;52.54
83815;BME280;73829;53.826;-3.034;2024-02-04T05:07:27;101944.20;;;16.97;52.33
83815;BME280;73829;53.826;-3.034;2024-02-04T05:09:58;101947.36;;;16.97;52.46
83815;BME280;73829;53.826;-3.034;2024-02-04T05:12:29;101954.04;;;16.97;52.39
83815;BME280;73829;53.826;-3.034;2024-02-04T05:15:00;101951.42;;;16.96;52.33
83815;BME280;73829;53.826;-3.034;2024-02-04T05:17:31;101952.13;;;16.96;52.29
83815;BME280;73829;53.826;-3.034;2024-02-04T05:20:04;101951.08;;;16.96;52.32
83815;BME280;73829;53.826;-3.034;2024-02-04T05:22:36;101947.55;;;16.95;52.19
83815;BME280;73829;53.826;-3.034;2024-02-04T05:25:08;101953.90;;;16.95;52.38
83815;BME280;73829;53.826;-3.034;2024-02-04T05:27:39;101955.30;;;16.95;52.37
83815;BME280;73829;53.826;-3.034;2024-02-04T05:30:14;101956.02;;;16.94;52.21
83815;BME280;73829;53.826;-3.034;2024-02-04T05:32:46;101963.24;;;16.94;52.27
83815;BME280;73829;53.826;-3.034;2024-02-04T05:35:17;101958.00;;;16.92;52.26
83815;BME280;73829;53.826;-3.034;2024-02-04T05:37:48;101956.75;;;16.93;52.36
83815;BME280;73829;53.826;-3.034;2024-02-04T05:40:19;101958.17;;;16.93;52.21
83815;BME280;73829;53.826;-3.034;2024-02-04T05:42:50;101963.09;;;16.93;52.21
83815;BME280;73829;53.826;-3.034;2024-02-04T05:45:21;101958.73;;;16.91;52.33
83815;BME280;73829;53.826;-3.034;2024-02-04T05:47:52;101959.43;;;16.90;52.29
83815;BME280;73829;53.826;-3.034;2024-02-04T05:50:23;101954.14;;;16.91;52.17
83815;BME280;73829;53.826;-3.034;2024-02-04T05:52:52;101949.95;;;16.90;52.27
83815;BME280;73829;53.826;-3.034;2024-02-04T05:55:24;101949.40;;;16.91;52.19
83815;BME280;73829;53.826;-3.034;2024-02-04T05:57:55;101943.45;;;16.90;52.20
83815;BME280;73829;53.826;-3.034;2024-02-04T06:00:27;101926.26;;;16.89;52.24
83815;BME280;73829;53.826;-3.034;2024-02-04T06:02:58;101923.27;;;16.88;52.24
83815;BME280;73829;53.826;-3.034;2024-02-04T06:05:29;101923.81;;;16.87;52.25
83815;BME280;73829;53.826;-3.034;2024-02-04T06:08:00;101930.33;;;16.87;52.20
83815;BME280;73829;53.826;-3.034;2024-02-04T06:10:31;101920.69;;;16.86;52.31
83815;BME280;73829;53.826;-3.034;2024-02-04T06:13:03;101913.66;;;16.86;52.24
83815;BME280;73829;53.826;-3.034;2024-02-04T06:15:34;101914.02;;;16.86;52.15
83815;BME280;73829;53.826;-3.034;2024-02-04T06:18:06;101909.98;;;16.85;52.19
83815;BME280;73829;53.826;-3.034;2024-02-04T06:20:36;101911.57;;;16.85;52.28
83815;BME280;73829;53.826;-3.034;2024-02-04T06:23:07;101910.52;;;16.84;52.25
83815;BME280;73829;53.826;-3.034;2024-02-04T06:25:38;101903.85;;;16.84;52.28
83815;BME280;73829;53.826;-3.034;2024-02-04T06:28:09;101898.23;;;16.83;52.19
83815;BME280;73829;53.826;-3.034;2024-02-04T06:30:41;101889.11;;;16.83;52.28
83815;BME280;73829;53.826;-3.034;2024-02-04T06:33:12;101889.48;;;16.82;52.31
83815;BME280;73829;53.826;-3.034;2024-02-04T06:35:42;101888.42;;;16.82;52.07
83815;BME280;73829;53.826;-3.034;2024-02-04T06:38:13;101879.63;;;16.83;52.25
83815;BME280;73829;53.826;-3.034;2024-02-04T06:40:44;101885.09;;;16.82;52.11
83815;BME280;73829;53.826;-3.034;2024-02-04T06:43:15;101891.60;;;16.81;52.14
83815;BME280;73829;53.826;-3.034;2024-02-04T06:45:46;101886.71;;;16.80;52.31
83815;BME280;73829;53.826;-3.034;2024-02-04T06:48:20;101886.75;;;16.79;52.26
83815;BME280;73829;53.826;-3.034;2024-02-04T06:50:51;101888.15;;;16.79;52.20
83815;BME280;73829;53.826;-3.034;2024-02-04T06:53:22;101889.55;;;16.79;52.14
83815;BME280;73829;53.826;-3.034;2024-02-04T06:55:53;101893.44;;;16.79;52.32
83815;BME280;73829;53.826;-3.034;2024-02-04T06:58:24;101893.42;;;16.78;52.14
83815;BME280;73829;53.826;-3.034;2024-02-04T07:00:55;101877.45;;;16.77;52.11
83815;BME280;73829;53.826;-3.034;2024-02-04T07:03:26;101874.98;;;16.78;52.16
83815;BME280;73829;53.826;-3.034;2024-02-04T07:05:59;101873.77;;;16.77;52.22
83815;BME280;73829;53.826;-3.034;2024-02-04T07:08:31;101868.52;;;16.77;52.18
83815;BME280;73829;53.826;-3.034;2024-02-04T07:11:02;101876.45;;;16.75;52.24
83815;BME280;73829;53.826;-3.034;2024-02-04T07:13:33;101875.41;;;16.75;52.30
83815;BME280;73829;53.826;-3.034;2024-02-04T07:16:04;101870.81;;;16.76;52.23
83815;BME280;73829;53.826;-3.034;2024-02-04T07:18:35;101860.62;;;16.76;52.27
83815;BME280;73829;53.826;-3.034;2024-02-04T07:21:07;101854.12;;;16.75;52.11
83815;BME280;73829;53.826;-3.034;2024-02-04T07:23:38;101859.75;;;16.75;52.11
83815;BME280;73829;53.826;-3.034;2024-02-04T07:26:09;101850.61;;;16.74;52.28
83815;BME280;73829;53.826;-3.034;2024-02-04T07:28:40;101845.37;;;16.72;52.09
83815;BME280;73829;53.826;-3.034;2024-02-04T07:31:11;101840.60;;;16.74;52.23
83815;BME280;73829;53.826;-3.034;2024-02-04T07:33:42;101837.79;;;16.74;52.19
83815;BME280;73829;53.826;-3.034;2024-02-04T07:36:13;101836.05;;;16.73;52.05
83815;BME280;73829;53.826;-3.034;2024-02-04T07:38:44;101840.63;;;16.73;52.24
83815;BME280;73829;53.826;-3.034;2024-02-04T07:41:16;101849.41;;;16.72;52.18
83815;BME280;73829;53.826;-3.034;2024-02-04T07:43:47;101857.67;;;16.72;52.26
83815;BME280;73829;53.826;-3.034;2024-02-04T07:46:18;101852.06;;;16.72;52.26
83815;BME280;73829;53.826;-3.034;2024-02-04T07:48:49;101841.70;;;16.71;52.10
83815;BME280;73829;53.826;-3.034;2024-02-04T07:51:20;101839.60;;;16.71;51.99
83815;BME280;73829;53.826;-3.034;2024-02-04T07:53:52;101836.96;;;16.71;52.04
83815;BME280;73829;53.826;-3.034;2024-02-04T07:56:23;101838.56;;;16.70;52.21
83815;BME280;73829;53.826;-3.034;2024-02-04T07:58:54;101833.13;;;16.70;52.22
83815;BME280;73829;53.826;-3.034;2024-02-04T08:01:25;101829.96;;;16.70;52.24
83815;BME280;73829;53.826;-3.034;2024-02-04T08:03:54;101832.64;;;16.68;52.15
83815;BME280;73829;53.826;-3.034;2024-02-04T08:06:26;101829.77;;;16.70;52.09
83815;BME280;73829;53.826;-3.034;2024-02-04T08:08:57;101828.77;;;16.68;52.16
83815;BME280;73829;53.826;-3.034;2024-02-04T08:11:28;101827.70;;;16.67;52.12
83815;BME280;73829;53.826;-3.034;2024-02-04T08:13:59;101821.27;;;16.65;52.15
83815;BME280;73829;53.826;-3.034;2024-02-04T08:16:31;101828.30;;;16.66;52.14
83815;BME280;73829;53.826;-3.034;2024-02-04T08:19:02;101831.98;;;16.65;52.23
83815;BME280;73829;53.826;-3.034;2024-02-04T08:21:36;101828.30;;;16.66;52.22
83815;BME280;73829;53.826;-3.034;2024-02-04T08:24:07;101828.14;;;16.65;52.06
83815;BME280;73829;53.826;-3.034;2024-02-04T08:26:38;101834.98;;;16.65;52.23
83815;BME280;73829;53.826;-3.034;2024-02-04T08:29:09;101831.48;;;16.64;52.06
83815;BME280;73829;53.826;-3.034;2024-02-04T08:31:40;101824.63;;;16.64;52.13
83815;BME280;73829;53.826;-3.034;2024-02-04T08:34:11;101820.95;;;16.64;52.21
83815;BME280;73829;53.826;-3.034;2024-02-04T08:36:42;101822.01;;;16.63;52.17
83815;BME280;73829;53.826;-3.034;2024-02-04T08:39:14;101825.36;;;16.63;52.10
83815;BME280;73829;53.826;-3.034;2024-02-04T08:41:45;101824.64;;;16.63;52.43
83815;BME280;73829;53.826;-3.034;2024-02-04T08:44:16;101814.43;;;16.64;52.46
83815;BME280;73829;53.826;-3.034;2024-02-04T08:46:50;101817.77;;;16.65;52.61
83815;BME280;73829;53.826;-3.034;2024-02-04T08:49:21;101815.98;;;16.66;52.66
83815;BME280;73829;53.826;-3.034;2024-02-04T08:51:50;101821.56;;;16.68;52.70
83815;BME280;73829;53.826;-3.034;2024-02-04T08:54:21;101819.38;;;16.71;52.53
83815;BME280;73829;53.826;-3.034;2024-02-04T08:56:52;101809.35;;;16.72;52.76
83815;BME280;73829;53.826;-3.034;2024-02-04T08:59:24;101801.08;;;16.73;52.67
83815;BME280;73829;53.826;-3.034;2024-02-04T09:01:55;101795.61;;;16.74;52.72
83815;BME280;73829;53.826;-3.034;2024-02-04T09:04:30;101792.61;;;16.76;52.72
83815;BME280;73829;53.826;-3.034;2024-02-04T09:07:01;101789.96;;;16.76;52.83
83815;BME280;73829;53.826;-3.034;2024-02-04T09:09:32;101786.94;;;16.78;52.89
83815;BME280;73829;53.826;-3.034;2024-02-04T09:12:04;101789.54;;;16.80;52.94
83815;BME280;73829;53.826;-3.034;2024-02-04T09:14:35;101788.79;;;16.82;52.94
83815;BME280;73829;53.826;-3.034;2024-02-04T09:17:06;101786.29;;;16.83;53.03
83815;BME280;73829;53.826;-3.034;2024-02-04T09:19:39;101783.61;;;16.85;52.84
83815;BME280;73829;53.826;-3.034;2024-02-04T09:22:10;101779.36;;;16.87;52.76
83815;BME280;73829;53.826;-3.034;2024-02-04T09:24:41;101772.99;;;16.88;52.90
83815;BME280;73829;53.826;-3.034;2024-02-04T09:27:13;101768.05;;;16.89;53.00
83815;BME280;73829;53.826;-3.034;2024-02-04T09:29:44;101769.77;;;16.91;52.89
83815;BME280;73829;53.826;-3.034;2024-02-04T09:32:15;101759.17;;;16.93;52.91
83815;BME280;73829;53.826;-3.034;2024-02-04T09:34:46;101751.80;;;16.93;53.01
83815;BME280;73829;53.826;-3.034;2024-02-04T09:37:18;101750.32;;;16.96;52.98
83815;BME280;73829;53.826;-3.034;2024-02-04T09:39:49;101739.23;;;16.97;53.09
83815;BME280;73829;53.826;-3.034;2024-02-04T09:42:23;101742.19;;;16.98;53.01
83815;BME280;73829;53.826;-3.034;2024-02-04T09:44:54;101744.62;;;16.99;52.99
83815;BME280;73829;53.826;-3.034;2024-02-04T09:47:26;101737.21;;;17.00;52.91
83815;BME280;73829;53.826;-3.034;2024-02-04T09:49:57;101732.63;;;17.01;52.90
83815;BME280;73829;53.826;-3.034;2024-02-04T09:52:30;101727.14;;;17.02;52.89
83815;BME280;73829;53.826;-3.034;2024-02-04T09:55:04;101724.45;;;17.04;52.89
83815;BME280;73829;53.826;-3.034;2024-02-04T09:57:37;101727.23;;;17.05;52.99
83815;BME280;73829;53.826;-3.034;2024-02-04T10:00:11;101723.50;;;17.07;52.93
83815;BME280;73829;53.826;-3.034;2024-02-04T10:02:45;101717.00;;;17.07;52.87
83815;BME280;73829;53.826;-3.034;2024-02-04T10:05:18;101716.60;;;17.09;52.88
83815;BME280;73829;53.826;-3.034;2024-02-04T10:07:50;101710.61;;;17.10;52.84
83815;BME280;73829;53.826;-3.034;2024-02-04T10:10:21;101701.79;;;17.10;52.85
83815;BME280;73829;53.826;-3.034;2024-02-04T10:12:52;101694.92;;;17.11;52.83
83815;BME280;73829;53.826;-3.034;2024-02-04T10:15:23;101689.98;;;17.11;52.84
83815;BME280;73829;53.826;-3.034;2024-02-04T10:17:54;101691.38;;;17.11;52.80
83815;BME280;73829;53.826;-3.034;2024-02-04T10:20:26;101693.13;;;17.12;52.81
83815;BME280;73829;53.826;-3.034;2024-02-04T10:22:57;101699.45;;;17.13;52.78
83815;BME280;73829;53.826;-3.034;2024-02-04T10:25:28;101693.27;;;17.13;52.88
83815;BME280;73829;53.826;-3.034;2024-02-04T10:27:59;101689.04;;;17.14;52.71
83815;BME280;73829;53.826;-3.034;2024-02-04T10:30:30;101679.52;;;17.15;52.88
83815;BME280;73829;53.826;-3.034;2024-02-04T10:33:03;101676.69;;;17.16;52.97
83815;BME280;73829;53.826;-3.034;2024-02-04T10:35:35;101670.55;;;17.15;53.09
83815;BME280;73829;53.826;-3.034;2024-02-04T10:38:07;101670.36;;;17.16;53.22
83815;BME280;73829;53.826;-3.034;2024-02-04T10:40:39;101672.30;;;17.16;53.22
83815;BME280;73829;53.826;-3.034;2024-02-04T10:43:11;101677.39;;;17.16;53.21
83815;BME280;73829;53.826;-3.034;2024-02-04T10:45:43;101681.25;;;17.17;53.39
83815;BME280;73829;53.826;-3.034;2024-02-04T10:48:18;101680.36;;;17.17;53.34
83815;BME280;73829;53.826;-3.034;2024-02-04T10:50:51;101688.43;;;17.17;53.52
83815;BME280;73829;53.826;-3.034;2024-02-04T10:53:26;101695.49;;;17.16;53.56
83815;BME280;73829;53.826;-3.034;2024-02-04T10:56:00;101699.52;;;17.17;53.49
83815;BME280;73829;53.826;-3.034;2024-02-04T10:58:34;101696.67;;;17.19;53.54
83815;BME280;73829;53.826;-3.034;2024-02-04T11:01:06;101698.57;;;17.20;53.49
83815;BME280;73829;53.826;-3.034;2024-02-04T11:03:37;101703.83;;;17.20;53.58
83815;BME280;73829;53.826;-3.034;2024-02-04T11:06:11;101697.70;;;17.19;53.65
83815;BME280;73829;53.826;-3.034;2024-02-04T11:08:44;101705.92;;;17.21;53.64
83815;BME280;73829;53.826;-3.034;2024-02-04T11:11:15;101701.89;;;17.21;53.64
83815;BME280;73829;53.826;-3.034;2024-02-04T11:13:48;101697.29;;;17.22;53.61
83815;BME280;73829;53.826;-3.034;2024-02-04T11:16:31;101695.67;;;17.23;53.65
83815;BME280;73829;53.826;-3.034;2024-02-04T11:19:19;101694.58;;;17.24;53.67
83815;BME280;73829;53.826;-3.034;2024-02-04T11:22:11;101688.77;;;17.25;53.58
83815;BME280;73829;53.826;-3.034;2024-02-04T11:24:59;101687.87;;;17.26;53.61
83815;BME280;73829;53.826;-3.034;2024-02-04T11:27:34;101677.49;;;17.26;53.69
83815;BME280;73829;53.826;-3.034;2024-02-04T11:30:07;101678.17;;;17.26;53.50
83815;BME280;73829;53.826;-3.034;2024-02-04T11:32:40;101663.90;;;17.27;53.65
83815;BME280;73829;53.826;-3.034;2024-02-04T11:35:12;101667.76;;;17.28;53.66
83815;BME280;73829;53.826;-3.034;2024-02-04T11:37:43;101665.34;;;17.26;53.66
83815;BME280;73829;53.826;-3.034;2024-02-04T11:40:16;101650.73;;;17.26;53.71
83815;BME280;73829;53.826;-3.034;2024-02-04T11:42:48;101648.80;;;17.26;53.60
83815;BME280;73829;53.826;-3.034;2024-02-04T11:45:19;101650.90;;;17.27;53.49
83815;BME280;73829;53.826;-3.034;2024-02-04T11:48:01;101649.33;;;17.27;53.56
83815;BME280;73829;53.826;-3.034;2024-02-04T11:50:33;101643.70;;;17.27;53.70
83815;BME280;73829;53.826;-3.034;2024-02-04T11:53:06;101644.40;;;17.27;53.49
83815;BME280;73829;53.826;-3.034;2024-02-04T11:55:40;101640.71;;;17.27;53.52
83815;BME280;73829;53.826;-3.034;2024-02-04T11:58:13;101638.25;;;17.27;53.55
83815;BME280;73829;53.826;-3.034;2024-02-04T12:00:45;101636.31;;;17.26;53.56
83815;BME280;73829;53.826;-3.034;2024-02-04T12:03:16;101634.22;;;17.26;53.66
83815;BME280;73829;53.826;-3.034;2024-02-04T12:05:47;101632.13;;;17.25;53.60
83815;BME280;73829;53.826;-3.034;2024-02-04T12:08:20;101632.44;;;17.27;53.53
83815;BME280;73829;53.826;-3.034;2024-02-04T12:10:51;101628.94;;;17.26;53.84
83815;BME280;73829;53.826;-3.034;2024-02-04T12:13:23;101619.83;;;17.25;53.54
83815;BME280;73829;53.826;-3.034;2024-02-04T12:15:54;101627.57;;;17.25;53.78
83815;BME280;73829;53.826;-3.034;2024-02-04T12:18:27;101620.20;;;17.24;53.75
83815;BME280;73829;53.826;-3.034;2024-02-04T12:20:58;101622.31;;;17.24;53.85
83815;BME280;73829;53.826;-3.034;2024-02-04T12:23:29;101622.85;;;17.24;53.82
83815;BME280;73829;53.826;-3.034;2024-02-04T12:26:01;101623.77;;;17.22;53.97
83815;BME280;73829;53.826;-3.034;2024-02-04T12:28:32;101616.89;;;17.23;53.96
83815;BME280;73829;53.826;-3.034;2024-02-04T12:31:03;101618.09;;;17.24;53.69
83815;BME280;73829;53.826;-3.034;2024-02-04T12:33:34;101621.25;;;17.24;53.92
83815;BME280;73829;53.826;-3.034;2024-02-04T12:36:08;101618.61;;;17.24;53.96
83815;BME280;73829;53.826;-3.034;2024-02-04T12:38:40;101611.10;;;17.23;54.08
83815;BME280;73829;53.826;-3.034;2024-02-04T12:41:13;101612.85;;;17.23;54.00
83815;BME280;73829;53.826;-3.034;2024-02-04T12:43:50;101606.70;;;17.22;53.99
83815;BME280;73829;53.826;-3.034;2024-02-04T12:46:22;101601.09;;;17.22;54.22
83815;BME280;73829;53.826;-3.034;2024-02-04T12:48:54;101585.13;;;17.21;54.23
83815;BME280;73829;53.826;-3.034;2024-02-04T12:51:26;101594.58;;;17.22;54.26
83815;BME280;73829;53.826;-3.034;2024-02-04T12:54:09;101584.21;;;17.22;54.24
83815;BME280;73829;53.826;-3.034;2024-02-04T12:56:48;101586.67;;;17.22;54.08
83815;BME280;73829;53.826;-3.034;2024-02-04T12:59:29;101590.88;;;17.23;54.17
83815;BME280;73829;53.826;-3.034;2024-02-04T13:02:04;101591.92;;;17.23;54.23
83815;BME280;73829;53.826;-3.034;2024-02-04T13:04:39;101590.17;;;17.23;54.31